Worman, Pennsylvania
Current Conditions -  °F | °C
As of 7:54 AM on Tuesday 21 Oct 2014 (Local Time) from KPTW Reporting Station
Broken Clouds Broken Clouds  
Wind Chill: 49°   Ceiling: 9500
Heat Index: 49°   Visibility: 10mi
Dew Point: 47°   Wind: 3mph
Humidity: 93%   Direction: 70°ENE
Pressure: 29.89"   Gusts: NA
Location:  40.2688°N, 75.7411°W
Report Text: KPTW 211154Z AUTO 07003KT 10SM FEW070 BKN095 09/08 A2989 RMK AO2 SLP119 60002 70002 T00940083 10117 20094 53002
Loading
Personal Weather Stations






























Interactive Weather Map
Tropical Storm Tracking
New forecast layout! Learn more

10-Day Weather Forecast

Advertisements
Track Severe Weather on mobile